Time;durP1;ratioP1;P1;durP2;ratioP2;P2;SDS_P1;SDS_P2;PMS_P1;PMS_P2;Temp;Humidity;BMP_temperature;BMP_pressure;BME280_temperature;BME280_humidity;BME280_pressure;Samples;Min_cycle;Max_cycle;Signal;HPM_P1;HPM_P2
2022/04/09 00:01:40;;;;;;;3.07;1.80;;;;;;;2.21;100.00;98729.25;5024145;28;20287;-72
2022/04/09 00:04:06;;;;;;;2.20;1.60;;;;;;;2.24;100.00;98728.34;5030752;28;20200;-71
2022/04/09 00:06:33;;;;;;;2.37;2.00;;;;;;;2.23;100.00;98727.53;5016378;28;20225;-71
2022/04/09 00:08:59;;;;;;;5.10;2.03;;;;;;;2.23;100.00;98734.38;5025027;28;20222;-71
2022/04/09 00:11:25;;;;;;;2.10;1.90;;;;;;;2.22;100.00;98743.81;5019977;28;20199;-72
2022/04/09 00:13:52;;;;;;;2.23;1.60;;;;;;;2.22;100.00;98743.81;5018238;28;20213;-72
2022/04/09 00:16:19;;;;;;;2.50;2.20;;;;;;;2.25;100.00;98742.88;5027747;28;20664;-72
2022/04/09 00:18:47;;;;;;;4.60;2.07;;;;;;;2.23;100.00;98744.66;5016072;28;20205;-71
2022/04/09 00:21:13;;;;;;;3.30;2.27;;;;;;;2.24;100.00;98754.06;5025910;28;20502;-72
2022/04/09 00:23:39;;;;;;;2.07;1.80;;;;;;;2.25;100.00;98761.75;5028828;28;20192;-72
2022/04/09 00:26:06;;;;;;;2.43;1.93;;;;;;;2.26;100.00;98767.72;5021614;28;20843;-72
2022/04/09 00:28:32;;;;;;;2.30;1.80;;;;;;;2.25;100.00;98764.31;5019855;28;20282;-72
2022/04/09 00:30:58;;;;;;;3.53;2.00;;;;;;;2.28;100.00;98769.38;5016792;28;20203;-72
2022/04/09 00:33:26;;;;;;;3.10;2.10;;;;;;;2.26;100.00;98781.44;5009082;28;20215;-72
2022/04/09 00:35:54;;;;;;;3.40;1.80;;;;;;;2.28;100.00;98779.66;5011190;28;20227;-72
2022/04/09 00:38:21;;;;;;;3.33;1.87;;;;;;;2.25;100.00;98769.47;5010254;28;20295;-72
2022/04/09 00:40:48;;;;;;;2.03;1.80;;;;;;;2.26;100.00;98773.72;5023823;28;20192;-72
2022/04/09 00:43:15;;;;;;;2.63;1.90;;;;;;;2.24;100.00;98772.91;5007307;28;20569;-71
2022/04/09 00:45:41;;;;;;;4.13;1.77;;;;;;;2.27;100.00;98770.28;5022749;28;20278;-72
2022/04/09 00:48:10;;;;;;;1.77;1.67;;;;;;;2.26;100.00;98780.59;5022356;28;20196;-72
2022/04/09 00:50:36;;;;;;;2.00;1.80;;;;;;;2.27;100.00;98782.31;5013194;28;20200;-72
2022/04/09 00:53:07;;;;;;;3.30;2.00;;;;;;;2.25;100.00;98784.03;5027078;28;20653;-72
2022/04/09 00:58:21;;;;;;;3.30;2.00;;;;;;;2.27;100.00;98787.44;5009660;28;20203;-72
2022/04/09 01:00:48;;;;;;;2.23;1.90;;;;;;;2.25;100.00;98792.63;5019873;28;20275;-72
2022/04/09 01:03:18;;;;;;;3.83;2.20;;;;;;;2.26;100.00;98794.28;5005885;28;20206;-72
2022/04/09 01:05:45;;;;;;;2.70;2.10;;;;;;;2.27;100.00;98803.72;5003556;28;20876;-72
2022/04/09 01:08:13;;;;;;;2.70;2.20;;;;;;;2.26;100.00;98802.00;5015717;28;20215;-72
2022/04/09 01:10:40;;;;;;;3.43;2.27;;;;;;;2.28;100.00;98805.38;5021017;28;20231;-72
2022/04/09 01:13:07;;;;;;;3.60;2.73;;;;;;;2.31;100.00;98813.94;5009640;28;20223;-72
2022/04/09 01:15:34;;;;;;;3.53;2.50;;;;;;;2.31;100.00;98813.94;4998832;28;20228;-72
2022/04/09 01:18:01;;;;;;;3.97;2.60;;;;;;;2.32;100.00;98802.75;5004730;28;20219;-72
2022/04/09 01:20:29;;;;;;;6.50;2.60;;;;;;;2.35;100.00;98805.25;5006175;28;20362;-72
2022/04/09 01:22:57;;;;;;;3.53;2.30;;;;;;;2.35;100.00;98811.25;5001310;28;20247;-72
2022/04/09 01:25:23;;;;;;;3.20;2.43;;;;;;;2.36;100.00;98806.97;5023162;28;20725;-72
2022/04/09 01:27:54;;;;;;;3.10;2.33;;;;;;;2.33;100.00;98813.00;5022040;28;20554;-72
2022/04/09 01:30:21;;;;;;;3.40;2.60;;;;;;;2.33;100.00;98817.31;5008198;28;20226;-72
2022/04/09 01:32:48;;;;;;;2.63;2.40;;;;;;;2.33;100.00;98818.16;5004044;28;20200;-72
2022/04/09 01:35:15;;;;;;;4.07;2.47;;;;;;;2.33;100.00;98819.88;5012859;28;20254;-72
2022/04/09 01:37:41;;;;;;;4.57;2.50;;;;;;;2.33;100.00;98818.16;5009510;28;20240;-72
2022/04/09 01:40:13;;;;;;;4.23;2.40;;;;;;;2.32;100.00;98831.88;5005232;28;20658;-72
2022/04/09 01:42:44;;;;;;;4.93;2.30;;;;;;;2.32;100.00;98831.03;4999892;28;20196;-72
2022/04/09 01:45:10;;;;;;;3.77;2.30;;;;;;;2.35;100.00;98836.97;5005607;28;20231;-72
2022/04/09 01:47:41;;;;;;;3.60;2.30;;;;;;;2.35;100.00;98836.13;5008371;28;20286;-72
2022/04/09 01:50:10;;;;;;;3.40;2.30;;;;;;;2.37;100.00;98836.94;5022348;28;20290;-72
2022/04/09 01:52:36;;;;;;;3.17;2.40;;;;;;;2.36;100.00;98843.81;5007647;28;20577;-72
2022/04/09 01:55:03;;;;;;;3.33;2.57;;;;;;;2.36;100.00;98845.56;5000771;28;20224;-72
2022/04/09 01:57:32;;;;;;;3.30;2.40;;;;;;;2.35;100.00;98854.13;5007963;28;20215;-72
2022/04/09 01:59:58;;;;;;;4.27;2.80;;;;;;;2.32;100.00;98857.59;5002699;28;20254;-72
2022/04/09 02:02:26;;;;;;;4.57;3.03;;;;;;;2.35;100.00;98867.00;5002921;28;20292;-72
2022/04/09 02:04:52;;;;;;;6.23;3.60;;;;;;;2.35;100.00;98867.00;5000895;28;20201;-72
2022/04/09 02:07:19;;;;;;;4.23;3.10;;;;;;;2.36;100.00;98864.41;5013882;28;20213;-72
2022/04/09 02:09:46;;;;;;;3.67;2.77;;;;;;;2.34;100.00;98873.88;5022258;28;20200;-72
2022/04/09 02:12:12;;;;;;;5.27;3.17;;;;;;;2.33;100.00;98876.47;5019390;28;20216;-72
2022/04/09 02:14:40;;;;;;;5.17;3.23;;;;;;;2.32;100.00;98875.59;5000479;28;20319;-72
2022/04/09 02:17:07;;;;;;;3.90;3.13;;;;;;;2.28;100.00;98885.09;5008934;28;20239;-72
2022/04/09 02:19:33;;;;;;;3.83;3.00;;;;;;;2.27;100.00;98880.88;4998847;28;20206;-72
2022/04/09 02:22:00;;;;;;;4.80;3.20;;;;;;;2.22;100.00;98882.69;5002967;28;20203;-72
2022/04/09 02:24:26;;;;;;;6.37;3.33;;;;;;;2.22;100.00;98885.25;4998701;28;20201;-72
2022/04/09 02:26:53;;;;;;;4.40;3.37;;;;;;;2.18;100.00;98893.91;5014693;28;20211;-72
2022/04/09 02:29:20;;;;;;;8.20;3.53;;;;;;;2.18;100.00;98900.75;5026021;28;20204;-72
2022/04/09 02:31:48;;;;;;;4.57;3.73;;;;;;;2.14;100.00;98907.69;5014545;28;20212;-72
2022/04/09 02:34:14;;;;;;;3.40;3.07;;;;;;;2.11;100.00;98912.91;5023351;28;20700;-72
2022/04/09 02:36:41;;;;;;;4.63;3.37;;;;;;;2.05;100.00;98913.00;5018475;28;20323;-72
2022/04/09 02:39:08;;;;;;;7.60;3.57;;;;;;;2.04;100.00;98919.00;5004217;28;20208;-72
2022/04/09 02:41:35;;;;;;;4.23;3.40;;;;;;;2.00;100.00;98920.78;5019983;28;20290;-72
2022/04/09 02:44:02;;;;;;;5.77;3.90;;;;;;;1.97;100.00;98925.16;5006843;28;20215;-72
2022/04/09 02:46:28;;;;;;;6.97;3.53;;;;;;;1.94;100.00;98920.94;5011262;28;20242;-71
2022/04/09 02:48:59;;;;;;;4.57;3.27;;;;;;;1.89;100.00;98921.00;5002170;28;20207;-72
2022/04/09 02:51:26;;;;;;;7.00;3.30;;;;;;;1.83;100.00;98926.25;5020947;28;20201;-72
2022/04/09 02:53:52;;;;;;;7.40;3.43;;;;;;;1.82;100.00;98931.41;4998974;28;20240;-72
2022/04/09 02:56:19;;;;;;;4.77;3.60;;;;;;;1.81;100.00;98935.72;5015720;28;20238;-72
2022/04/09 02:58:46;;;;;;;4.60;3.17;;;;;;;1.83;100.00;98939.13;5023208;28;20196;-72
2022/04/09 03:01:12;;;;;;;6.57;4.03;;;;;;;1.80;100.00;98936.59;4998037;28;20208;-72
2022/04/09 03:03:38;;;;;;;5.33;3.30;;;;;;;1.80;100.00;98946.88;5028472;28;20197;-72
2022/04/09 03:06:06;;;;;;;4.70;3.50;;;;;;;1.76;100.00;98952.06;5006562;28;20311;-71
2022/04/09 03:08:33;;;;;;;4.83;3.00;;;;;;;1.76;100.00;98957.22;5015477;28;20203;-72
2022/04/09 03:10:59;;;;;;;4.70;3.47;;;;;;;1.70;100.00;98956.44;5008179;28;20750;-72
2022/04/09 03:13:25;;;;;;;4.30;3.47;;;;;;;1.72;100.00;98968.44;5006092;28;20292;-72
2022/04/09 03:15:52;;;;;;;5.03;3.43;;;;;;;1.68;100.00;98970.19;5024035;28;20580;-72
2022/04/09 03:18:20;;;;;;;8.20;3.80;;;;;;;1.66;100.00;98980.50;5024413;28;20283;-72
2022/04/09 03:20:47;;;;;;;7.40;3.70;;;;;;;1.66;100.00;98980.50;5019718;28;20207;-72
2022/04/09 03:23:17;;;;;;;5.77;3.60;;;;;;;1.69;100.00;98990.75;5022026;28;20242;-72
2022/04/09 03:25:48;;;;;;;3.37;2.97;;;;;;;1.62;100.00;98989.13;5008707;28;20227;-72
2022/04/09 03:28:17;;;;;;;4.53;3.40;;;;;;;1.59;100.00;98996.03;5019823;28;20205;-71
2022/04/09 03:30:44;;;;;;;5.10;3.63;;;;;;;1.57;100.00;99000.38;5030047;28;20215;-72
2022/04/09 03:33:11;;;;;;;3.90;3.30;;;;;;;1.53;100.00;99014.97;5012646;28;20680;-72
2022/04/09 03:35:37;;;;;;;4.60;3.43;;;;;;;1.48;100.00;99011.63;5011676;28;20328;-71
2022/04/09 03:38:06;;;;;;;6.43;3.37;;;;;;;1.47;100.00;99027.91;5005534;28;20621;-72
2022/04/09 03:40:43;;;;;;;4.20;3.17;;;;;;;1.41;100.00;99033.13;5018387;28;20692;-72
2022/04/09 03:43:10;;;;;;;4.60;3.40;;;;;;;1.44;100.00;99036.50;5003728;28;20741;-72
2022/04/09 03:45:38;;;;;;;5.13;3.23;;;;;;;1.41;100.00;99035.72;5016215;28;20685;-72
2022/04/09 03:48:06;;;;;;;6.63;3.60;;;;;;;1.42;100.00;99039.94;5003980;28;20200;-72
2022/04/09 03:50:36;;;;;;;7.43;3.70;;;;;;;1.39;100.00;99040.84;5003903;28;20291;-72
2022/04/09 03:53:03;;;;;;;6.53;3.50;;;;;;;1.41;100.00;99043.41;5014931;28;20207;-72
2022/04/09 03:55:31;;;;;;;8.90;3.90;;;;;;;1.42;100.00;99050.22;5009580;28;20702;-71
2022/04/09 03:58:01;;;;;;;8.27;3.83;;;;;;;1.44;100.00;99056.19;5008027;28;20273;-71
2022/04/09 04:00:28;;;;;;;5.53;3.97;;;;;;;1.46;100.00;99063.03;5010915;28;20208;-71
2022/04/09 04:02:57;;;;;;;7.63;3.60;;;;;;;1.44;100.00;99067.34;5008750;28;20299;-71
2022/04/09 04:05:24;;;;;;;6.73;3.77;;;;;;;1.43;100.00;99072.50;4996261;28;20240;-71
2022/04/09 04:07:51;;;;;;;9.00;3.90;;;;;;;1.43;100.00;99075.91;4999866;28;20206;-71
2022/04/09 04:10:20;;;;;;;5.93;3.87;;;;;;;1.42;100.00;99073.34;5007406;28;20283;-71
2022/04/09 04:12:52;;;;;;;8.60;3.87;;;;;;;1.43;100.00;99090.47;5021768;28;20773;-71
2022/04/09 04:15:25;;;;;;;6.73;3.93;;;;;;;1.42;100.00;99097.31;5008751;28;20238;-71
2022/04/09 04:17:52;;;;;;;5.73;3.83;;;;;;;1.43;100.00;99099.00;4998205;28;20199;-71
2022/04/09 04:20:24;;;;;;;6.70;3.60;;;;;;;1.43;100.00;99111.00;5020592;28;20254;-71
2022/04/09 04:22:52;;;;;;;5.50;3.60;;;;;;;1.46;100.00;99116.09;5012123;28;20247;-71
2022/04/09 04:25:19;;;;;;;7.47;3.93;;;;;;;1.47;100.00;99115.22;5001266;28;20227;-71
2022/04/09 04:27:47;;;;;;;5.77;4.13;;;;;;;1.52;100.00;99124.56;5011784;28;20207;-71
2022/04/09 04:30:16;;;;;;;7.50;4.10;;;;;;;1.54;100.00;99126.28;5008582;28;20203;-71
2022/04/09 04:32:44;;;;;;;7.40;4.03;;;;;;;1.54;100.00;99132.25;5017914;28;20958;-71
2022/04/09 04:35:12;;;;;;;6.60;3.80;;;;;;;1.56;100.00;99137.38;5011453;28;20222;-71
2022/04/09 04:37:40;;;;;;;6.37;4.00;;;;;;;1.61;100.00;99148.44;4999900;28;20223;-71
2022/04/09 04:40:09;;;;;;;6.87;3.80;;;;;;;1.61;100.00;99154.44;5010182;28;20294;-71
2022/04/09 04:42:36;;;;;;;7.10;3.67;;;;;;;1.63;100.00;99164.69;5003031;28;20220;-71
2022/04/09 04:45:04;;;;;;;4.00;3.13;;;;;;;1.61;100.00;99179.28;5006151;28;20188;-71
2022/04/09 04:47:31;;;;;;;7.63;3.83;;;;;;;1.60;100.00;99178.44;5009260;28;20204;-71
2022/04/09 04:50:03;;;;;;;6.17;3.67;;;;;;;1.64;100.00;99187.81;5004389;28;20210;-71
2022/04/09 04:52:30;;;;;;;6.67;4.20;;;;;;;1.70;100.00;99197.97;5021110;28;20202;-71
2022/04/09 04:54:57;;;;;;;6.73;3.80;;;;;;;1.73;100.00;99211.69;5020281;28;20208;-71
2022/04/09 04:57:24;;;;;;;5.80;3.67;;;;;;;1.77;100.00;99214.19;5015556;28;20200;-71
2022/04/09 04:59:51;;;;;;;7.30;3.70;;;;;;;1.77;100.00;99221.88;5013881;28;20265;-71
2022/04/09 05:02:17;;;;;;;14.33;4.27;;;;;;;1.82;100.00;99227.81;5010911;28;20204;-71
2022/04/09 05:04:44;;;;;;;7.83;3.40;;;;;;;1.86;100.00;99237.19;5000829;28;20196;-70
2022/04/09 05:07:12;;;;;;;9.90;3.40;;;;;;;1.86;100.00;99236.34;5014925;28;20216;-70
2022/04/09 05:09:39;;;;;;;5.47;3.40;;;;;;;1.85;100.00;99248.34;5017889;28;20198;-70
2022/04/09 05:12:06;;;;;;;8.50;3.47;;;;;;;1.86;100.00;99260.31;5019464;28;20239;-70
2022/04/09 05:14:41;;;;;;;6.83;2.93;;;;;;;1.82;100.00;99258.66;4999473;28;20600;-71
2022/04/09 05:17:12;;;;;;;5.43;3.43;;;;;;;1.83;100.00;99265.53;5010847;28;20230;-71
2022/04/09 05:19:39;;;;;;;5.90;3.63;;;;;;;1.84;100.00;99267.19;5002586;28;20200;-71
2022/04/09 05:22:11;;;;;;;7.07;3.80;;;;;;;1.84;100.00;99281.78;5004768;28;20208;-71
2022/04/09 05:24:49;;;;;;;6.60;3.37;;;;;;;1.84;100.00;99285.19;5004013;28;20286;-71
2022/04/09 05:27:17;;;;;;;5.87;3.73;;;;;;;1.82;100.00;99293.81;5008186;28;20220;-70
2022/04/09 05:29:44;;;;;;;7.70;4.03;;;;;;;1.83;100.00;99298.06;5013699;28;20188;-70
2022/04/09 05:32:13;;;;;;;6.60;3.33;;;;;;;1.81;100.00;99305.81;5004601;28;20302;-70
2022/04/09 05:34:41;;;;;;;9.10;3.63;;;;;;;1.79;100.00;99315.25;5010946;28;20227;-70
2022/04/09 05:37:07;;;;;;;6.40;3.23;;;;;;;1.79;100.00;99320.38;5008125;28;20249;-70
2022/04/09 05:39:35;;;;;;;6.47;3.33;;;;;;;1.78;100.00;99330.69;5006417;28;20200;-71
2022/04/09 05:42:04;;;;;;;5.33;3.50;;;;;;;1.80;100.00;99339.25;5001621;28;20286;-71
2022/04/09 05:44:31;;;;;;;5.87;3.40;;;;;;;1.82;100.00;99343.47;5018334;28;20234;-71
2022/04/09 05:46:59;;;;;;;7.03;3.53;;;;;;;1.88;100.00;99348.56;5008631;28;20343;-70
2022/04/09 05:49:27;;;;;;;8.37;3.93;;;;;;;1.96;100.00;99356.19;5026505;28;20247;-70
2022/04/09 05:51:54;;;;;;;6.37;4.10;;;;;;;2.03;100.00;99357.81;5002228;28;20600;-71
2022/04/09 05:54:21;;;;;;;6.73;3.40;;;;;;;2.13;100.00;99362.84;5017623;28;20735;-71
2022/04/09 05:56:53;;;;;;;8.00;3.90;;;;;;;2.24;100.00;99368.72;4999801;28;20232;-70
2022/04/09 05:59:25;;;;;;;8.53;3.60;;;;;;;2.27;100.00;99371.28;5023341;28;20208;-71
2022/04/09 06:01:51;;;;;;;5.87;3.77;;;;;;;2.31;100.00;99370.34;5008913;28;20247;-71
2022/04/09 06:04:20;;;;;;;5.70;3.60;;;;;;;2.38;100.00;99379.69;5006027;28;20200;-71
2022/04/09 06:06:47;;;;;;;7.63;3.07;;;;;;;2.45;100.00;99389.03;5006897;28;20227;-71
2022/04/09 06:09:13;;;;;;;6.07;3.23;;;;;;;2.50;100.00;99383.84;5024538;28;20209;-70
2022/04/09 06:11:54;;;;;;;7.90;3.23;;;;;;;2.55;100.00;99388.91;5024984;28;20311;-70
2022/04/09 06:14:25;;;;;;;6.83;3.33;;;;;;;2.57;100.00;99395.75;5004062;28;20290;-71
2022/04/09 06:16:56;;;;;;;6.83;3.50;;;;;;;2.64;100.00;99399.94;5007998;28;21037;-70
2022/04/09 06:19:22;;;;;;;6.83;3.63;;;;;;;2.69;100.00;99410.19;5022543;28;20685;-71
2022/04/09 06:21:48;;;;;;;5.13;3.40;;;;;;;2.79;100.00;99404.00;5017876;28;20210;-71
2022/04/09 06:24:18;;;;;;;7.67;3.23;;;;;;;2.94;100.00;99412.41;5004085;28;20838;-71
2022/04/09 06:26:45;;;;;;;5.57;3.13;;;;;;;3.04;100.00;99424.25;5012907;28;20830;-70
2022/04/09 06:29:14;;;;;;;8.23;3.60;;;;;;;3.15;100.00;99429.25;5002408;28;20212;-70
2022/04/09 06:31:45;;;;;;;6.90;3.43;;;;;;;3.30;100.00;99428.19;5022166;28;20271;-71
2022/04/09 06:34:12;;;;;;;5.80;3.10;;;;;;;3.44;100.00;99446.84;5012836;28;20249;-71
2022/04/09 06:36:40;;;;;;;8.73;2.80;;;;;;;3.52;100.00;99442.44;5020504;28;20224;-70
2022/04/09 06:39:08;;;;;;;6.80;2.80;;;;;;;3.64;100.00;99451.72;5005762;28;20287;-71
2022/04/09 06:41:37;;;;;;;7.50;2.80;;;;;;;3.68;100.00;99462.81;5001676;28;20676;-71
2022/04/09 06:44:08;;;;;;;6.13;2.50;;;;;;;3.72;100.00;99467.88;5009929;28;20637;-71
2022/04/09 06:46:59;;;;;;;5.10;2.23;;;;;;;3.75;100.00;99469.56;5017815;28;20232;-70
2022/04/09 06:49:31;;;;;;;7.30;2.53;;;;;;;3.83;100.00;99469.44;5009405;28;20192;-71
2022/04/09 06:52:14;;;;;;;7.07;2.27;;;;;;;3.88;100.00;99477.94;5005243;28;20455;-71
2022/04/09 06:54:50;;;;;;;7.43;2.27;;;;;;;3.96;100.00;99474.34;5025038;28;20334;-71
2022/04/09 06:57:17;;;;;;;6.20;2.10;;;;;;;4.00;100.00;99488.03;5013154;28;20837;-71
2022/04/09 06:59:46;;;;;;;5.83;2.00;;;;;;;4.06;100.00;99487.09;5003188;28;20294;-70
2022/04/09 07:02:15;;;;;;;5.23;2.40;;;;;;;4.00;100.00;99519.00;5016902;28;20216;-71
2022/04/09 07:04:42;;;;;;;5.70;2.77;;;;;;;4.04;99.04;99505.16;5017856;28;20207;-71
2022/04/09 07:07:08;;;;;;;6.30;2.03;;;;;;;4.18;98.63;99518.66;5017868;28;20629;-71
2022/04/09 07:09:35;;;;;;;8.63;2.63;;;;;;;4.41;99.42;99514.81;5014901;28;20636;-70
2022/04/09 07:12:01;;;;;;;7.20;2.53;;;;;;;4.50;96.85;99527.56;5026152;28;20201;-71
2022/04/09 07:14:27;;;;;;;7.90;2.57;;;;;;;4.45;95.98;99518.19;5024402;28;20204;-71
2022/04/09 07:16:58;;;;;;;5.97;2.37;;;;;;;4.40;94.86;99554.44;5025751;28;20884;-70
2022/04/09 07:19:26;;;;;;;5.73;2.00;;;;;;;4.42;94.64;99538.91;5026586;28;20547;-71
2022/04/09 07:21:53;;;;;;;3.37;2.23;;;;;;;4.60;93.93;99550.63;5025272;28;20214;-71
2022/04/09 07:24:20;;;;;;;4.17;1.90;;;;;;;4.55;91.54;99574.78;5026930;28;20200;-71
2022/04/09 07:26:46;;;;;;;4.40;1.93;;;;;;;4.67;90.63;99567.72;5025314;28;20754;-71
2022/04/09 07:29:12;;;;;;;6.53;1.80;;;;;;;4.68;91.92;99562.53;5026419;28;20204;-71
2022/04/09 07:31:39;;;;;;;6.33;2.20;;;;;;;4.77;91.61;99574.41;5025377;28;20217;-71
2022/04/09 07:34:05;;;;;;;6.77;2.37;;;;;;;4.65;90.55;99583.22;5027026;28;20211;-71
2022/04/09 07:36:33;;;;;;;5.80;1.90;;;;;;;4.62;90.38;99582.44;5025894;28;20224;-70
2022/04/09 07:39:00;;;;;;;6.10;2.33;;;;;;;4.81;90.08;99585.53;5026554;28;20707;-71
2022/04/09 07:41:26;;;;;;;3.23;1.80;;;;;;;4.93;86.66;99593.03;5024743;28;20219;-71
2022/04/09 07:43:53;;;;;;;6.10;2.17;;;;;;;4.79;86.74;99600.22;5023401;28;20204;-71
2022/04/09 07:46:20;;;;;;;5.17;1.77;;;;;;;4.69;85.96;99595.19;5022108;28;20216;-71
2022/04/09 07:48:47;;;;;;;3.93;2.17;;;;;;;4.82;88.14;99610.44;5022202;28;20629;-71
2022/04/09 07:51:13;;;;;;;5.57;1.90;;;;;;;4.86;87.80;99614.69;5015316;28;20207;-70
2022/04/09 07:53:41;;;;;;;3.43;2.00;;;;;;;4.91;87.92;99613.72;5021970;28;20211;-71
2022/04/09 07:56:08;;;;;;;6.60;2.13;;;;;;;4.93;86.68;99611.13;5017666;28;20292;-71
2022/04/09 07:58:34;;;;;;;5.50;2.23;;;;;;;5.10;88.40;99601.31;5017649;28;20790;-70
2022/04/09 08:01:01;;;;;;;6.63;2.20;;;;;;;5.33;87.78;99618.09;5018810;28;20185;-71
2022/04/09 08:03:27;;;;;;;6.80;2.30;;;;;;;5.37;83.57;99622.31;5022462;28;20227;-71
2022/04/09 08:05:54;;;;;;;5.87;2.70;;;;;;;5.36;84.49;99627.50;5017717;28;20213;-70
2022/04/09 08:08:20;;;;;;;4.07;2.50;;;;;;;5.50;83.38;99643.56;5017868;28;20208;-71
2022/04/09 08:10:48;;;;;;;4.77;2.17;;;;;;;5.43;80.98;99640.25;5025958;28;20204;-71
2022/04/09 08:13:14;;;;;;;4.90;2.83;;;;;;;5.75;81.94;99638.75;5024787;28;20204;-71
2022/04/09 08:15:40;;;;;;;5.30;1.97;;;;;;;5.96;82.19;99645.22;5023779;28;20255;-71
2022/04/09 08:18:09;;;;;;;6.93;2.20;;;;;;;6.04;81.34;99645.00;5022565;28;20293;-71
2022/04/09 08:20:36;;;;;;;5.27;2.20;;;;;;;5.90;81.46;99642.72;5022898;28;20595;-71
2022/04/09 08:23:03;;;;;;;6.87;2.30;;;;;;;5.85;80.41;99634.19;5018739;28;20207;-70
2022/04/09 08:25:30;;;;;;;6.03;2.30;;;;;;;6.10;81.75;99637.09;5011085;28;20216;-71
2022/04/09 08:27:57;;;;;;;7.13;2.70;;;;;;;6.39;80.51;99648.50;5014718;28;20238;-70
2022/04/09 08:30:24;;;;;;;9.13;4.03;;;;;;;6.51;80.59;99655.97;5018421;28;20493;-70
2022/04/09 08:32:51;;;;;;;8.50;3.90;;;;;;;6.35;78.66;99654.63;5020591;28;20219;-71
2022/04/09 08:35:18;;;;;;;7.13;2.87;;;;;;;6.49;79.19;99657.75;5020315;28;20299;-70
2022/04/09 08:37:52;;;;;;;6.33;2.57;;;;;;;6.22;78.18;99667.03;5016498;28;20592;-70
2022/04/09 08:40:20;;;;;;;761.83;85.93;;;;;;;6.14;77.84;99663.75;5020767;28;20208;-71
2022/04/09 08:42:47;;;;;;;16.90;5.27;;;;;;;5.87;78.17;99666.06;5018722;28;20596;-70
2022/04/09 08:45:16;;;;;;;666.53;78.53;;;;;;;6.08;79.45;99675.09;5016299;28;20283;-70
2022/04/09 08:47:44;;;;;;;1129.87;146.67;;;;;;;6.39;82.33;99670.06;5019562;28;20232;-70
2022/04/09 08:50:12;;;;;;;38.97;5.97;;;;;;;6.63;83.77;99670.34;5019550;28;20293;-71
2022/04/09 08:52:40;;;;;;;79.97;9.93;;;;;;;6.75;82.53;99658.81;5018515;28;20196;-70
2022/04/09 08:55:08;;;;;;;14.00;6.10;;;;;;;6.94;81.43;99673.00;5021474;28;20204;-70
2022/04/09 08:57:35;;;;;;;1635.87;199.97;;;;;;;7.03;82.92;99661.53;5018906;28;20285;-70
2022/04/09 09:00:06;;;;;;;700.13;84.20;;;;;;;6.85;77.29;99668.06;5021199;28;20206;-71
2022/04/09 09:02:36;;;;;;;227.33;27.57;;;;;;;6.94;75.97;99680.78;5014288;28;20630;-71
2022/04/09 09:05:03;;;;;;;940.60;108.47;;;;;;;6.91;73.75;99683.47;5001522;28;20208;-70
2022/04/09 09:07:29;;;;;;;1446.77;195.77;;;;;;;6.72;76.22;99680.50;5013859;28;20283;-70
2022/04/09 09:10:16;;;;;;;561.33;60.03;;;;;;;6.31;76.92;99687.50;5020489;28;20628;-70
2022/04/09 09:12:43;;;;;;;1474.30;200.50;;;;;;;6.15;77.62;99687.00;5021280;28;20201;-70
2022/04/09 09:15:11;;;;;;;661.77;68.60;;;;;;;6.31;80.14;99681.50;5022117;28;20673;-70
2022/04/09 09:17:39;;;;;;;802.43;93.17;;;;;;;6.75;79.00;99685.56;5016943;28;20198;-70
2022/04/09 09:20:14;;;;;;;17.40;2.90;;;;;;;6.82;74.90;99684.56;5020387;28;20206;-70
2022/04/09 09:22:42;;;;;;;212.53;23.07;;;;;;;6.71;74.73;99689.13;5019769;28;20196;-70
2022/04/09 09:25:10;;;;;;;5.30;2.43;;;;;;;6.56;74.59;99690.38;5022180;28;20231;-70
2022/04/09 09:27:37;;;;;;;12.60;3.00;;;;;;;6.40;73.89;99689.03;5018506;28;20201;-70
2022/04/09 09:30:04;;;;;;;101.30;13.27;;;;;;;6.54;74.63;99680.94;5020615;28;20238;-70
2022/04/09 09:32:31;;;;;;;5.90;2.00;;;;;;;6.66;70.80;99687.56;5020216;28;20206;-70
2022/04/09 09:34:59;;;;;;;95.03;14.07;;;;;;;7.08;71.64;99684.75;5020734;28;20200;-70
2022/04/09 09:37:28;;;;;;;111.20;13.10;;;;;;;7.17;68.22;99687.94;5016211;28;20204;-70
2022/04/09 09:39:55;;;;;;;256.80;30.70;;;;;;;7.20;70.38;99685.25;5021649;28;20200;-71
2022/04/09 09:42:23;;;;;;;122.07;14.77;;;;;;;7.21;69.18;99683.50;5011185;28;20213;-71
2022/04/09 09:44:50;;;;;;;19.17;3.57;;;;;;;7.12;67.86;99687.19;5021489;28;20211;-70
2022/04/09 09:47:18;;;;;;;10.47;2.70;;;;;;;7.40;65.78;99686.44;5022152;28;20235;-70
2022/04/09 09:49:55;;;;;;;13.07;2.20;;;;;;;7.34;64.15;99699.59;5020637;28;20271;-70
2022/04/09 09:52:30;;;;;;;175.70;19.07;;;;;;;6.95;64.72;99710.16;5018190;28;20207;-71
2022/04/09 09:54:58;;;;;;;46.87;5.07;;;;;;;6.33;74.78;99726.31;5022325;28;20197;-71
2022/04/09 09:57:27;;;;;;;3.60;2.17;;;;;;;5.58;87.40;99724.44;5022154;28;20217;-70
2022/04/09 09:59:55;;;;;;;697.80;77.50;;;;;;;5.04;93.21;99714.25;5015084;28;20279;-70
2022/04/09 10:02:23;;;;;;;580.90;69.17;;;;;;;5.11;98.71;99716.69;5022830;28;20192;-71
2022/04/09 10:04:50;;;;;;;139.33;13.83;;;;;;;5.21;100.00;99708.78;5018885;28;20274;-71
2022/04/09 10:07:18;;;;;;;581.00;57.93;;;;;;;5.03;97.89;99703.06;5024948;28;20223;-71
2022/04/09 10:09:47;;;;;;;83.17;11.53;;;;;;;5.08;100.00;99690.06;5018587;28;20266;-70
2022/04/09 10:12:18;;;;;;;14.80;3.00;;;;;;;4.85;98.20;99693.06;5020923;28;20453;-71
2022/04/09 10:14:49;;;;;;;27.93;6.40;;;;;;;4.85;100.00;99691.31;5015676;28;20201;-71
2022/04/09 10:17:18;;;;;;;16.87;4.70;;;;;;;4.99;100.00;99683.31;5017435;28;20632;-71
2022/04/09 10:19:49;;;;;;;33.57;5.83;;;;;;;5.23;100.00;99663.94;5016189;28;20662;-71
2022/04/09 10:22:18;;;;;;;52.43;7.57;;;;;;;5.43;100.00;99665.25;5014539;28;20212;-71
2022/04/09 10:24:47;;;;;;;213.53;22.43;;;;;;;5.55;96.71;99677.09;5019420;28;20210;-70
2022/04/09 10:27:39;;;;;;;113.07;14.00;;;;;;;5.64;93.16;99676.91;5007812;28;20746;-71
2022/04/09 10:30:19;;;;;;;479.57;55.93;;;;;;;5.84;90.45;99673.88;5017584;28;20530;-71
2022/04/09 10:32:48;;;;;;;5.10;2.40;;;;;;;5.95;84.65;99691.78;5019320;28;20212;-71
2022/04/09 10:35:32;;;;;;;21.13;4.37;;;;;;;6.13;84.39;99690.53;5021451;28;20235;-71
2022/04/09 10:38:18;;;;;;;25.40;3.83;;;;;;;6.17;78.66;99690.41;5021636;28;20204;-71
2022/04/09 10:41:30;;;;;;;8.53;2.67;;;;;;;6.48;78.04;99701.81;5017108;28;20200;-71
2022/04/09 10:43:59;;;;;;;8.40;3.20;;;;;;;6.60;77.59;99685.97;5019874;28;20284;-70
2022/04/09 10:46:35;;;;;;;8.73;3.03;;;;;;;6.88;73.55;99678.34;5021413;28;20692;-71
2022/04/09 10:49:19;;;;;;;36.73;5.83;;;;;;;7.00;71.43;99703.06;5020151;28;20230;-71
2022/04/09 10:52:05;;;;;;;18.57;2.70;;;;;;;7.22;65.98;99708.56;5019017;28;20203;-70
2022/04/09 10:54:32;;;;;;;25.87;4.60;;;;;;;7.67;65.66;99705.59;5019230;28;20200;-71
2022/04/09 10:57:07;;;;;;;31.20;4.87;;;;;;;7.96;58.98;99719.44;5022831;28;20220;-71
2022/04/09 10:59:37;;;;;;;65.13;10.50;;;;;;;7.95;57.41;99746.31;5022696;28;20246;-70
2022/04/09 11:02:04;;;;;;;4.47;1.60;;;;;;;7.82;55.84;99730.22;5025860;28;20210;-71
2022/04/09 11:04:42;;;;;;;4.63;1.63;;;;;;;7.75;56.11;99723.50;5024899;28;20208;-71
2022/04/09 11:07:10;;;;;;;24.50;2.97;;;;;;;7.78;56.72;99729.47;5024198;28;20215;-71
2022/04/09 11:09:49;;;;;;;2.20;1.63;;;;;;;8.11;56.61;99724.19;5021857;28;20231;-71
2022/04/09 11:12:18;;;;;;;2.87;1.60;;;;;;;8.50;58.19;99721.25;5015135;28;20218;-71
2022/04/09 11:14:49;;;;;;;11.23;2.13;;;;;;;8.74;56.16;99729.16;5025365;28;20201;-70
2022/04/09 11:17:34;;;;;;;4.67;1.70;;;;;;;8.59;56.39;99738.31;5022661;28;20213;-71
2022/04/09 11:20:09;;;;;;;2.53;1.90;;;;;;;8.58;56.12;99739.19;5023776;28;20203;-72
2022/04/09 11:22:36;;;;;;;6.10;1.80;;;;;;;8.79;57.17;99744.59;5022498;28;20750;-72
2022/04/09 11:25:05;;;;;;;11.40;2.33;;;;;;;8.35;53.91;99765.88;5027502;28;20258;-72
2022/04/09 11:27:32;;;;;;;176.23;6.13;;;;;;;8.56;50.93;99764.38;5021724;28;20210;-72
2022/04/09 11:30:00;;;;;;;7.43;2.20;;;;;;;8.53;51.52;99769.66;5024877;28;20850;-71
2022/04/09 11:32:27;;;;;;;4.97;2.23;;;;;;;8.55;50.44;99754.03;5013981;28;20199;-71
2022/04/09 11:34:56;;;;;;;4.83;2.27;;;;;;;8.56;50.69;99771.34;5025388;28;20206;-71
2022/04/09 11:37:23;;;;;;;3.23;1.80;;;;;;;8.43;51.68;99765.69;5019520;28;20220;-70
2022/04/09 11:39:51;;;;;;;10.80;2.13;;;;;;;8.34;49.51;99770.22;5019289;28;20202;-70
2022/04/09 11:42:18;;;;;;;6.57;1.70;;;;;;;8.31;48.20;99765.13;5023516;28;20213;-71
2022/04/09 11:44:44;;;;;;;26.80;3.43;;;;;;;8.34;52.15;99778.00;5023070;28;20344;-71